sensor_id;sensor_type;location;lat;lon;timestamp;temperature;humidity
16955;DHT22;8594;52.052;8.354;2023-07-02T07:18:47;21.40;99.90
16955;DHT22;8594;52.052;8.354;2023-07-02T07:21:14;21.30;99.90
16955;DHT22;8594;52.052;8.354;2023-07-02T07:23:41;21.00;99.90
16955;DHT22;8594;52.052;8.354;2023-07-02T07:26:08;20.60;99.90
16955;DHT22;8594;52.052;8.354;2023-07-02T07:28:35;20.50;99.90
16955;DHT22;8594;52.052;8.354;2023-07-02T07:31:02;20.90;99.90
16955;DHT22;8594;52.052;8.354;2023-07-02T07:33:29;21.10;99.90
16955;DHT22;8594;52.052;8.354;2023-07-02T07:35:57;21.30;99.90
16955;DHT22;8594;52.052;8.354;2023-07-02T07:38:24;21.40;99.90
16955;DHT22;8594;52.052;8.354;2023-07-02T07:40:51;21.20;99.90
16955;DHT22;8594;52.052;8.354;2023-07-02T07:43:18;21.20;99.90
16955;DHT22;8594;52.052;8.354;2023-07-02T07:45:45;21.40;99.90
16955;DHT22;8594;52.052;8.354;2023-07-02T07:48:11;21.70;99.90
16955;DHT22;8594;52.052;8.354;2023-07-02T07:50:38;21.90;99.90
16955;DHT22;8594;52.052;8.354;2023-07-02T07:53:06;21.80;99.90
16955;DHT22;8594;52.052;8.354;2023-07-02T07:55:33;22.00;99.90
16955;DHT22;8594;52.052;8.354;2023-07-02T07:58:00;22.40;99.90
16955;DHT22;8594;52.052;8.354;2023-07-02T08:00:26;22.60;99.90
16955;DHT22;8594;52.052;8.354;2023-07-02T08:02:53;22.30;99.90
16955;DHT22;8594;52.052;8.354;2023-07-02T08:05:21;22.10;99.90
16955;DHT22;8594;52.052;8.354;2023-07-02T08:07:48;22.10;99.90
16955;DHT22;8594;52.052;8.354;2023-07-02T08:10:16;22.40;99.90
16955;DHT22;8594;52.052;8.354;2023-07-02T08:12:43;22.20;99.90
16955;DHT22;8594;52.052;8.354;2023-07-02T08:15:11;21.90;99.90
16955;DHT22;8594;52.052;8.354;2023-07-02T08:17:38;21.60;99.90
16955;DHT22;8594;52.052;8.354;2023-07-02T08:20:05;21.60;99.90
16955;DHT22;8594;52.052;8.354;2023-07-02T08:22:35;21.60;99.90
16955;DHT22;8594;52.052;8.354;2023-07-02T08:25:02;21.00;99.90
16955;DHT22;8594;52.052;8.354;2023-07-02T08:27:30;20.70;99.90
16955;DHT22;8594;52.052;8.354;2023-07-02T08:29:57;20.90;99.90
16955;DHT22;8594;52.052;8.354;2023-07-02T08:32:24;20.60;99.90
16955;DHT22;8594;52.052;8.354;2023-07-02T08:34:51;20.30;99.90
16955;DHT22;8594;52.052;8.354;2023-07-02T08:37:18;20.20;99.90
16955;DHT22;8594;52.052;8.354;2023-07-02T08:39:49;20.30;99.90
16955;DHT22;8594;52.052;8.354;2023-07-02T08:42:16;20.70;99.90
16955;DHT22;8594;52.052;8.354;2023-07-02T08:44:45;20.60;99.90
16955;DHT22;8594;52.052;8.354;2023-07-02T08:47:13;20.70;99.90
16955;DHT22;8594;52.052;8.354;2023-07-02T08:49:41;20.90;99.90
16955;DHT22;8594;52.052;8.354;2023-07-02T08:52:08;21.20;99.90
16955;DHT22;8594;52.052;8.354;2023-07-02T08:54:35;21.50;99.90
16955;DHT22;8594;52.052;8.354;2023-07-02T08:57:04;21.30;99.90
16955;DHT22;8594;52.052;8.354;2023-07-02T08:59:31;21.20;99.90
16955;DHT22;8594;52.052;8.354;2023-07-02T09:01:59;21.40;99.90
16955;DHT22;8594;52.052;8.354;2023-07-02T09:04:26;21.40;99.90
16955;DHT22;8594;52.052;8.354;2023-07-02T09:07:04;21.60;99.90
16955;DHT22;8594;52.052;8.354;2023-07-02T09:09:32;21.40;99.90
16955;DHT22;8594;52.052;8.354;2023-07-02T09:12:00;21.30;99.90
16955;DHT22;8594;52.052;8.354;2023-07-02T09:14:29;21.20;99.90
16955;DHT22;8594;52.052;8.354;2023-07-02T09:17:03;20.90;99.90
16955;DHT22;8594;52.052;8.354;2023-07-02T09:19:31;20.80;99.90
16955;DHT22;8594;52.052;8.354;2023-07-02T09:21:58;20.60;99.90
16955;DHT22;8594;52.052;8.354;2023-07-02T09:24:26;20.60;99.90
16955;DHT22;8594;52.052;8.354;2023-07-02T09:26:56;21.00;99.90
16955;DHT22;8594;52.052;8.354;2023-07-02T09:29:25;21.40;99.90
16955;DHT22;8594;52.052;8.354;2023-07-02T09:31:54;21.80;99.90
16955;DHT22;8594;52.052;8.354;2023-07-02T09:34:28;21.90;99.90
16955;DHT22;8594;52.052;8.354;2023-07-02T09:36:56;21.80;99.90
16955;DHT22;8594;52.052;8.354;2023-07-02T09:39:26;21.60;99.90
16955;DHT22;8594;52.052;8.354;2023-07-02T09:41:55;21.60;99.90
16955;DHT22;8594;52.052;8.354;2023-07-02T09:44:26;21.50;99.90
16955;DHT22;8594;52.052;8.354;2023-07-02T09:46:59;21.40;99.90
16955;DHT22;8594;52.052;8.354;2023-07-02T09:49:33;21.70;99.90
16955;DHT22;8594;52.052;8.354;2023-07-02T09:52:02;21.50;99.90
16955;DHT22;8594;52.052;8.354;2023-07-02T09:54:31;21.40;99.90
16955;DHT22;8594;52.052;8.354;2023-07-02T09:57:00;21.30;99.90
16955;DHT22;8594;52.052;8.354;2023-07-02T09:59:27;21.50;99.90
16955;DHT22;8594;52.052;8.354;2023-07-02T10:01:55;21.30;99.90
16955;DHT22;8594;52.052;8.354;2023-07-02T10:04:23;21.30;99.90
16955;DHT22;8594;52.052;8.354;2023-07-02T10:06:52;21.20;99.90
16955;DHT22;8594;52.052;8.354;2023-07-02T10:09:25;21.70;99.90
16955;DHT22;8594;52.052;8.354;2023-07-02T10:12:01;21.50;99.90
16955;DHT22;8594;52.052;8.354;2023-07-02T10:14:40;21.70;99.90
16955;DHT22;8594;52.052;8.354;2023-07-02T10:17:07;21.70;99.90
16955;DHT22;8594;52.052;8.354;2023-07-02T10:19:34;22.10;99.90
16955;DHT22;8594;52.052;8.354;2023-07-02T10:22:04;22.20;99.90
16955;DHT22;8594;52.052;8.354;2023-07-02T10:24:33;22.30;99.90
16955;DHT22;8594;52.052;8.354;2023-07-02T10:27:01;22.30;99.90
16955;DHT22;8594;52.052;8.354;2023-07-02T10:29:29;21.80;99.90
16955;DHT22;8594;52.052;8.354;2023-07-02T10:31:57;21.50;99.90
16955;DHT22;8594;52.052;8.354;2023-07-02T10:34:32;21.40;99.90
16955;DHT22;8594;52.052;8.354;2023-07-02T10:37:00;21.80;99.90
16955;DHT22;8594;52.052;8.354;2023-07-02T10:39:30;21.90;99.90
16955;DHT22;8594;52.052;8.354;2023-07-02T10:42:04;21.50;99.90
16955;DHT22;8594;52.052;8.354;2023-07-02T10:44:31;21.30;99.90
16955;DHT22;8594;52.052;8.354;2023-07-02T10:46:58;21.30;99.90
16955;DHT22;8594;52.052;8.354;2023-07-02T10:49:31;21.20;99.90
16955;DHT22;8594;52.052;8.354;2023-07-02T10:51:59;21.20;99.90
16955;DHT22;8594;52.052;8.354;2023-07-02T10:54:26;21.10;99.90
16955;DHT22;8594;52.052;8.354;2023-07-02T10:57:06;21.10;99.90
16955;DHT22;8594;52.052;8.354;2023-07-02T10:59:33;21.90;99.90
16955;DHT22;8594;52.052;8.354;2023-07-02T11:02:00;22.30;99.90
16955;DHT22;8594;52.052;8.354;2023-07-02T11:04:29;22.60;99.90
16955;DHT22;8594;52.052;8.354;2023-07-02T11:06:56;22.40;99.90
16955;DHT22;8594;52.052;8.354;2023-07-02T11:09:23;22.30;99.90
16955;DHT22;8594;52.052;8.354;2023-07-02T11:11:52;21.90;99.90
16955;DHT22;8594;52.052;8.354;2023-07-02T11:14:31;22.00;99.90
16955;DHT22;8594;52.052;8.354;2023-07-02T11:17:00;22.30;99.90
16955;DHT22;8594;52.052;8.354;2023-07-02T11:19:29;22.60;99.90
16955;DHT22;8594;52.052;8.354;2023-07-02T11:21:57;22.80;99.90
16955;DHT22;8594;52.052;8.354;2023-07-02T11:24:30;22.80;99.90
16955;DHT22;8594;52.052;8.354;2023-07-02T11:26:58;22.80;99.90
16955;DHT22;8594;52.052;8.354;2023-07-02T11:29:25;22.40;99.90
16955;DHT22;8594;52.052;8.354;2023-07-02T11:31:54;22.50;99.90
16955;DHT22;8594;52.052;8.354;2023-07-02T11:34:22;22.40;99.90
16955;DHT22;8594;52.052;8.354;2023-07-02T11:36:50;22.10;99.90
16955;DHT22;8594;52.052;8.354;2023-07-02T11:39:19;22.30;99.90
16955;DHT22;8594;52.052;8.354;2023-07-02T11:41:47;22.00;99.90
16955;DHT22;8594;52.052;8.354;2023-07-02T11:44:16;21.80;99.90
16955;DHT22;8594;52.052;8.354;2023-07-02T11:46:43;21.70;99.90
16955;DHT22;8594;52.052;8.354;2023-07-02T11:49:14;21.90;99.90
16955;DHT22;8594;52.052;8.354;2023-07-02T11:51:42;22.00;99.90
16955;DHT22;8594;52.052;8.354;2023-07-02T11:54:13;21.60;99.90
16955;DHT22;8594;52.052;8.354;2023-07-02T11:56:41;21.60;99.90
16955;DHT22;8594;52.052;8.354;2023-07-02T11:59:08;21.90;99.90
16955;DHT22;8594;52.052;8.354;2023-07-02T12:01:35;21.90;99.90
16955;DHT22;8594;52.052;8.354;2023-07-02T12:04:02;22.20;99.90
16955;DHT22;8594;52.052;8.354;2023-07-02T12:06:32;22.30;99.90
16955;DHT22;8594;52.052;8.354;2023-07-02T12:08:58;22.30;99.90
16955;DHT22;8594;52.052;8.354;2023-07-02T12:11:25;22.20;99.90
16955;DHT22;8594;52.052;8.354;2023-07-02T12:13:52;22.00;99.90
16955;DHT22;8594;52.052;8.354;2023-07-02T12:16:19;22.00;99.90
16955;DHT22;8594;52.052;8.354;2023-07-02T12:18:46;22.50;99.90
16955;DHT22;8594;52.052;8.354;2023-07-02T12:21:12;22.70;99.90
16955;DHT22;8594;52.052;8.354;2023-07-02T12:23:41;23.00;99.90
16955;DHT22;8594;52.052;8.354;2023-07-02T12:26:07;23.10;99.90
16955;DHT22;8594;52.052;8.354;2023-07-02T12:28:34;23.00;99.90
16955;DHT22;8594;52.052;8.354;2023-07-02T12:31:01;23.00;99.90
16955;DHT22;8594;52.052;8.354;2023-07-02T12:33:28;23.00;99.90
16955;DHT22;8594;52.052;8.354;2023-07-02T12:35:55;23.10;99.90
16955;DHT22;8594;52.052;8.354;2023-07-02T12:38:22;23.40;99.90
16955;DHT22;8594;52.052;8.354;2023-07-02T12:40:51;23.50;99.90
16955;DHT22;8594;52.052;8.354;2023-07-02T12:43:18;23.50;99.50
16955;DHT22;8594;52.052;8.354;2023-07-02T12:45:45;23.50;99.60
16955;DHT22;8594;52.052;8.354;2023-07-02T12:48:12;23.30;98.80
16955;DHT22;8594;52.052;8.354;2023-07-02T12:50:39;23.50;99.90
16955;DHT22;8594;52.052;8.354;2023-07-02T12:53:06;23.70;99.10
16955;DHT22;8594;52.052;8.354;2023-07-02T12:55:34;23.40;99.10
16955;DHT22;8594;52.052;8.354;2023-07-02T12:58:02;23.30;97.40
16955;DHT22;8594;52.052;8.354;2023-07-02T13:00:28;23.60;98.60
16955;DHT22;8594;52.052;8.354;2023-07-02T13:02:55;23.70;97.60
16955;DHT22;8594;52.052;8.354;2023-07-02T13:05:22;23.90;98.40
16955;DHT22;8594;52.052;8.354;2023-07-02T13:07:49;23.90;97.40
16955;DHT22;8594;52.052;8.354;2023-07-02T13:10:16;24.00;98.60
16955;DHT22;8594;52.052;8.354;2023-07-02T13:12:42;23.80;97.40
16955;DHT22;8594;52.052;8.354;2023-07-02T13:15:11;23.80;97.20
16955;DHT22;8594;52.052;8.354;2023-07-02T13:17:37;23.60;96.50
16955;DHT22;8594;52.052;8.354;2023-07-02T13:20:07;23.50;96.50
16955;DHT22;8594;52.052;8.354;2023-07-02T13:22:34;23.50;96.10
16955;DHT22;8594;52.052;8.354;2023-07-02T13:25:03;23.70;96.30
16955;DHT22;8594;52.052;8.354;2023-07-02T13:27:30;23.10;96.70
16955;DHT22;8594;52.052;8.354;2023-07-02T13:29:57;23.00;97.80
16955;DHT22;8594;52.052;8.354;2023-07-02T13:32:26;23.40;98.60
16955;DHT22;8594;52.052;8.354;2023-07-02T13:34:53;23.60;98.50
16955;DHT22;8594;52.052;8.354;2023-07-02T13:37:20;23.60;98.70
16955;DHT22;8594;52.052;8.354;2023-07-02T13:39:48;23.50;97.80
16955;DHT22;8594;52.052;8.354;2023-07-02T13:42:15;23.60;98.00
16955;DHT22;8594;52.052;8.354;2023-07-02T13:44:42;23.50;98.60
16955;DHT22;8594;52.052;8.354;2023-07-02T13:47:10;23.20;98.00
16955;DHT22;8594;52.052;8.354;2023-07-02T13:49:38;23.20;98.40
16955;DHT22;8594;52.052;8.354;2023-07-02T13:52:06;23.40;99.90
16955;DHT22;8594;52.052;8.354;2023-07-02T13:54:34;23.60;98.40
16955;DHT22;8594;52.052;8.354;2023-07-02T13:57:01;23.60;98.60
16955;DHT22;8594;52.052;8.354;2023-07-02T13:59:29;23.70;99.50
16955;DHT22;8594;52.052;8.354;2023-07-02T14:01:56;23.70;98.50
16955;DHT22;8594;52.052;8.354;2023-07-02T14:04:22;23.40;97.70
16955;DHT22;8594;52.052;8.354;2023-07-02T14:06:49;23.20;98.40
16955;DHT22;8594;52.052;8.354;2023-07-02T14:09:16;23.10;99.40
16955;DHT22;8594;52.052;8.354;2023-07-02T14:11:43;23.00;99.30
16955;DHT22;8594;52.052;8.354;2023-07-02T14:14:10;22.80;99.00
16955;DHT22;8594;52.052;8.354;2023-07-02T14:16:38;22.70;98.80
16955;DHT22;8594;52.052;8.354;2023-07-02T14:19:06;22.60;98.70
16955;DHT22;8594;52.052;8.354;2023-07-02T14:21:33;22.50;99.30
16955;DHT22;8594;52.052;8.354;2023-07-02T14:24:00;22.60;99.20
16955;DHT22;8594;52.052;8.354;2023-07-02T14:26:26;22.60;98.80
16955;DHT22;8594;52.052;8.354;2023-07-02T14:28:53;22.60;99.10
16955;DHT22;8594;52.052;8.354;2023-07-02T14:31:20;22.40;99.60
16955;DHT22;8594;52.052;8.354;2023-07-02T14:33:49;22.60;99.70
16955;DHT22;8594;52.052;8.354;2023-07-02T14:36:16;22.60;99.30
16955;DHT22;8594;52.052;8.354;2023-07-02T14:38:43;22.60;99.90
16955;DHT22;8594;52.052;8.354;2023-07-02T14:41:09;22.90;99.90
16955;DHT22;8594;52.052;8.354;2023-07-02T14:43:36;22.90;99.90
16955;DHT22;8594;52.052;8.354;2023-07-02T14:46:03;23.00;99.30
16955;DHT22;8594;52.052;8.354;2023-07-02T14:48:31;22.70;99.80
16955;DHT22;8594;52.052;8.354;2023-07-02T14:51:00;22.80;99.90
16955;DHT22;8594;52.052;8.354;2023-07-02T14:53:29;23.00;99.90
16955;DHT22;8594;52.052;8.354;2023-07-02T14:55:59;23.20;99.90
16955;DHT22;8594;52.052;8.354;2023-07-02T14:58:28;23.30;98.70
16955;DHT22;8594;52.052;8.354;2023-07-02T15:00:57;23.20;99.80
16955;DHT22;8594;52.052;8.354;2023-07-02T15:03:26;23.10;99.40
16955;DHT22;8594;52.052;8.354;2023-07-02T15:05:54;23.10;99.90
16955;DHT22;8594;52.052;8.354;2023-07-02T15:08:22;23.00;99.90
16955;DHT22;8594;52.052;8.354;2023-07-02T15:10:51;22.90;98.90
16955;DHT22;8594;52.052;8.354;2023-07-02T15:13:19;22.70;99.20
16955;DHT22;8594;52.052;8.354;2023-07-02T15:15:48;22.80;99.90
16955;DHT22;8594;52.052;8.354;2023-07-02T15:18:16;23.00;99.90
16955;DHT22;8594;52.052;8.354;2023-07-02T15:20:44;23.20;99.90
16955;DHT22;8594;52.052;8.354;2023-07-02T15:23:11;23.30;99.90
16955;DHT22;8594;52.052;8.354;2023-07-02T15:25:42;23.30;99.90
16955;DHT22;8594;52.052;8.354;2023-07-02T15:28:09;23.20;99.60
16955;DHT22;8594;52.052;8.354;2023-07-02T15:30:38;23.00;98.10
16955;DHT22;8594;52.052;8.354;2023-07-02T15:33:05;23.20;99.20
16955;DHT22;8594;52.052;8.354;2023-07-02T15:35:32;23.10;98.40
16955;DHT22;8594;52.052;8.354;2023-07-02T15:37:58;23.10;98.50
16955;DHT22;8594;52.052;8.354;2023-07-02T15:40:25;22.90;98.20
16955;DHT22;8594;52.052;8.354;2023-07-02T15:42:54;22.90;98.20
16955;DHT22;8594;52.052;8.354;2023-07-02T15:45:21;22.90;99.20
16955;DHT22;8594;52.052;8.354;2023-07-02T15:47:48;23.10;99.10
16955;DHT22;8594;52.052;8.354;2023-07-02T15:50:14;23.20;99.80
16955;DHT22;8594;52.052;8.354;2023-07-02T15:52:41;22.90;98.40
16955;DHT22;8594;52.052;8.354;2023-07-02T15:55:08;22.90;98.80
16955;DHT22;8594;52.052;8.354;2023-07-02T15:57:36;22.80;98.80
16955;DHT22;8594;52.052;8.354;2023-07-02T16:00:05;22.90;99.90
16955;DHT22;8594;52.052;8.354;2023-07-02T16:02:33;23.10;99.00
16955;DHT22;8594;52.052;8.354;2023-07-02T16:05:00;22.90;97.90
16955;DHT22;8594;52.052;8.354;2023-07-02T16:07:27;22.90;99.10
16955;DHT22;8594;52.052;8.354;2023-07-02T16:09:53;22.80;98.00
16955;DHT22;8594;52.052;8.354;2023-07-02T16:12:20;22.90;97.70
16955;DHT22;8594;52.052;8.354;2023-07-02T16:14:47;22.90;99.00
16955;DHT22;8594;52.052;8.354;2023-07-02T16:17:15;22.80;98.60
16955;DHT22;8594;52.052;8.354;2023-07-02T16:19:42;22.80;98.20
16955;DHT22;8594;52.052;8.354;2023-07-02T16:22:09;22.70;98.30
16955;DHT22;8594;52.052;8.354;2023-07-02T16:24:36;22.50;99.10
16955;DHT22;8594;52.052;8.354;2023-07-02T16:27:06;22.70;98.80
16955;DHT22;8594;52.052;8.354;2023-07-02T16:29:36;22.70;98.30
16955;DHT22;8594;52.052;8.354;2023-07-02T16:32:04;22.90;98.10
16955;DHT22;8594;52.052;8.354;2023-07-02T16:34:33;22.60;97.60
16955;DHT22;8594;52.052;8.354;2023-07-02T16:37:00;22.50;98.10
16955;DHT22;8594;52.052;8.354;2023-07-02T16:39:27;22.60;97.30
16955;DHT22;8594;52.052;8.354;2023-07-02T16:41:53;22.60;97.50
16955;DHT22;8594;52.052;8.354;2023-07-02T16:44:22;22.60;97.00
16955;DHT22;8594;52.052;8.354;2023-07-02T16:46:53;22.40;98.70
16955;DHT22;8594;52.052;8.354;2023-07-02T16:49:22;22.40;98.10
16955;DHT22;8594;52.052;8.354;2023-07-02T16:51:52;22.40;97.70
16955;DHT22;8594;52.052;8.354;2023-07-02T16:54:21;22.30;98.60
16955;DHT22;8594;52.052;8.354;2023-07-02T16:56:50;22.50;98.10
16955;DHT22;8594;52.052;8.354;2023-07-02T16:59:20;22.60;98.60
16955;DHT22;8594;52.052;8.354;2023-07-02T17:01:49;22.60;98.40
16955;DHT22;8594;52.052;8.354;2023-07-02T17:04:18;22.50;98.00
16955;DHT22;8594;52.052;8.354;2023-07-02T17:06:47;22.30;98.60
16955;DHT22;8594;52.052;8.354;2023-07-02T17:09:23;22.30;98.10
16955;DHT22;8594;52.052;8.354;2023-07-02T17:11:58;22.30;98.30
16955;DHT22;8594;52.052;8.354;2023-07-02T17:14:27;22.30;98.40
16955;DHT22;8594;52.052;8.354;2023-07-02T17:16:58;22.30;99.80
16955;DHT22;8594;52.052;8.354;2023-07-02T17:19:28;22.40;99.10
16955;DHT22;8594;52.052;8.354;2023-07-02T17:21:59;22.50;99.30
16955;DHT22;8594;52.052;8.354;2023-07-02T17:24:30;22.50;98.80
16955;DHT22;8594;52.052;8.354;2023-07-02T17:26:59;22.60;98.30
16955;DHT22;8594;52.052;8.354;2023-07-02T17:29:27;22.40;98.70
16955;DHT22;8594;52.052;8.354;2023-07-02T17:31:58;22.40;98.60
16955;DHT22;8594;52.052;8.354;2023-07-02T17:34:28;22.30;98.90
16955;DHT22;8594;52.052;8.354;2023-07-02T17:36:58;22.30;99.00
16955;DHT22;8594;52.052;8.354;2023-07-02T17:39:29;22.10;98.90
16955;DHT22;8594;52.052;8.354;2023-07-02T17:41:57;21.80;98.90
16955;DHT22;8594;52.052;8.354;2023-07-02T17:44:28;22.00;99.10
16955;DHT22;8594;52.052;8.354;2023-07-02T17:46:58;22.10;99.00
16955;DHT22;8594;52.052;8.354;2023-07-02T17:49:29;21.90;99.10
16955;DHT22;8594;52.052;8.354;2023-07-02T17:51:57;21.70;99.10
16955;DHT22;8594;52.052;8.354;2023-07-02T17:54:24;21.90;99.10
16955;DHT22;8594;52.052;8.354;2023-07-02T17:56:53;21.80;98.90
16955;DHT22;8594;52.052;8.354;2023-07-02T17:59:21;21.60;99.30
16955;DHT22;8594;52.052;8.354;2023-07-02T18:01:51;21.60;99.80
16955;DHT22;8594;52.052;8.354;2023-07-02T18:04:18;21.80;99.30
16955;DHT22;8594;52.052;8.354;2023-07-02T18:06:48;21.80;99.50
16955;DHT22;8594;52.052;8.354;2023-07-02T18:09:17;21.50;99.60
16955;DHT22;8594;52.052;8.354;2023-07-02T18:11:44;21.50;99.70
16955;DHT22;8594;52.052;8.354;2023-07-02T18:14:13;21.60;99.90
16955;DHT22;8594;52.052;8.354;2023-07-02T18:16:41;21.50;99.90
16955;DHT22;8594;52.052;8.354;2023-07-02T18:19:08;21.50;99.90
16955;DHT22;8594;52.052;8.354;2023-07-02T18:21:35;21.40;99.90
16955;DHT22;8594;52.052;8.354;2023-07-02T18:24:04;21.40;99.90
16955;DHT22;8594;52.052;8.354;2023-07-02T18:26:31;21.50;99.90
16955;DHT22;8594;52.052;8.354;2023-07-02T18:28:58;21.50;99.90
16955;DHT22;8594;52.052;8.354;2023-07-02T18:31:26;21.40;99.90
16955;DHT22;8594;52.052;8.354;2023-07-02T18:33:53;21.30;99.90
16955;DHT22;8594;52.052;8.354;2023-07-02T18:36:20;21.20;99.90
16955;DHT22;8594;52.052;8.354;2023-07-02T18:38:47;21.20;99.90
16955;DHT22;8594;52.052;8.354;2023-07-02T18:41:14;21.10;99.90
16955;DHT22;8594;52.052;8.354;2023-07-02T18:43:40;20.80;99.90
16955;DHT22;8594;52.052;8.354;2023-07-02T18:46:07;20.80;99.90
16955;DHT22;8594;52.052;8.354;2023-07-02T18:48:35;20.90;99.90
16955;DHT22;8594;52.052;8.354;2023-07-02T18:51:06;21.10;99.90
16955;DHT22;8594;52.052;8.354;2023-07-02T18:53:34;21.20;99.90
16955;DHT22;8594;52.052;8.354;2023-07-02T18:56:03;21.10;99.90
16955;DHT22;8594;52.052;8.354;2023-07-02T18:58:33;21.10;99.90
16955;DHT22;8594;52.052;8.354;2023-07-02T19:01:06;20.80;99.90
16955;DHT22;8594;52.052;8.354;2023-07-02T19:03:36;20.80;99.90
16955;DHT22;8594;52.052;8.354;2023-07-02T19:06:06;20.50;99.90
16955;DHT22;8594;52.052;8.354;2023-07-02T19:08:34;20.60;99.90
16955;DHT22;8594;52.052;8.354;2023-07-02T19:11:03;20.60;99.90
16955;DHT22;8594;52.052;8.354;2023-07-02T19:13:31;20.60;99.90
16955;DHT22;8594;52.052;8.354;2023-07-02T19:15:59;20.60;99.90
16955;DHT22;8594;52.052;8.354;2023-07-02T19:18:26;20.60;99.90
16955;DHT22;8594;52.052;8.354;2023-07-02T19:20:57;20.70;99.90
16955;DHT22;8594;52.052;8.354;2023-07-02T19:23:25;20.70;99.90
16955;DHT22;8594;52.052;8.354;2023-07-02T19:25:53;20.70;99.90
16955;DHT22;8594;52.052;8.354;2023-07-02T19:28:20;20.80;99.50
16955;DHT22;8594;52.052;8.354;2023-07-02T19:30:47;21.00;99.80
16955;DHT22;8594;52.052;8.354;2023-07-02T19:33:15;20.70;99.90
16955;DHT22;8594;52.052;8.354;2023-07-02T19:35:41;20.80;99.70
16955;DHT22;8594;52.052;8.354;2023-07-02T19:38:09;20.60;99.90
16955;DHT22;8594;52.052;8.354;2023-07-02T19:40:36;20.50;99.90
16955;DHT22;8594;52.052;8.354;2023-07-02T19:43:03;20.50;99.90
16955;DHT22;8594;52.052;8.354;2023-07-02T19:45:30;20.60;99.80
16955;DHT22;8594;52.052;8.354;2023-07-02T19:47:56;20.50;99.90
16955;DHT22;8594;52.052;8.354;2023-07-02T19:50:23;20.50;99.90
16955;DHT22;8594;52.052;8.354;2023-07-02T19:52:50;20.40;99.90
16955;DHT22;8594;52.052;8.354;2023-07-02T19:55:19;20.50;99.90
16955;DHT22;8594;52.052;8.354;2023-07-02T19:57:45;20.50;99.90
16955;DHT22;8594;52.052;8.354;2023-07-02T20:00:13;20.50;99.90
16955;DHT22;8594;52.052;8.354;2023-07-02T20:02:40;20.60;99.90
16955;DHT22;8594;52.052;8.354;2023-07-02T20:05:07;20.50;99.90
16955;DHT22;8594;52.052;8.354;2023-07-02T20:07:35;20.40;99.90
16955;DHT22;8594;52.052;8.354;2023-07-02T20:10:03;20.40;99.90
16955;DHT22;8594;52.052;8.354;2023-07-02T20:12:32;20.60;99.90
16955;DHT22;8594;52.052;8.354;2023-07-02T20:15:00;20.60;99.90
16955;DHT22;8594;52.052;8.354;2023-07-02T20:17:29;20.60;99.90
16955;DHT22;8594;52.052;8.354;2023-07-02T20:19:57;20.50;99.90
16955;DHT22;8594;52.052;8.354;2023-07-02T20:22:25;20.50;99.90
16955;DHT22;8594;52.052;8.354;2023-07-02T20:24:52;20.40;99.90
16955;DHT22;8594;52.052;8.354;2023-07-02T20:27:19;20.40;99.90
16955;DHT22;8594;52.052;8.354;2023-07-02T20:29:49;20.40;99.90
16955;DHT22;8594;52.052;8.354;2023-07-02T20:32:17;20.50;99.90
16955;DHT22;8594;52.052;8.354;2023-07-02T20:34:45;20.50;99.90
16955;DHT22;8594;52.052;8.354;2023-07-02T20:37:13;20.40;99.90
16955;DHT22;8594;52.052;8.354;2023-07-02T20:39:40;20.50;99.90
16955;DHT22;8594;52.052;8.354;2023-07-02T20:42:07;20.30;99.90
16955;DHT22;8594;52.052;8.354;2023-07-02T20:44:35;20.00;99.90
16955;DHT22;8594;52.052;8.354;2023-07-02T20:47:05;19.90;99.90
16955;DHT22;8594;52.052;8.354;2023-07-02T20:49:34;20.10;99.90
16955;DHT22;8594;52.052;8.354;2023-07-02T20:52:03;19.80;99.90
16955;DHT22;8594;52.052;8.354;2023-07-02T20:54:31;19.70;99.90
16955;DHT22;8594;52.052;8.354;2023-07-02T20:56:57;19.50;99.90
16955;DHT22;8594;52.052;8.354;2023-07-02T20:59:24;19.50;99.90
16955;DHT22;8594;52.052;8.354;2023-07-02T21:01:51;19.60;99.90
16955;DHT22;8594;52.052;8.354;2023-07-02T21:04:19;19.40;99.90
16955;DHT22;8594;52.052;8.354;2023-07-02T21:06:46;19.40;99.90
16955;DHT22;8594;52.052;8.354;2023-07-02T21:09:13;19.40;99.90
16955;DHT22;8594;52.052;8.354;2023-07-02T21:11:41;19.20;99.90
16955;DHT22;8594;52.052;8.354;2023-07-02T21:14:09;19.20;99.90
16955;DHT22;8594;52.052;8.354;2023-07-02T21:16:36;19.30;99.90
16955;DHT22;8594;52.052;8.354;2023-07-02T21:19:03;19.10;99.90
16955;DHT22;8594;52.052;8.354;2023-07-02T21:21:31;19.20;99.90
16955;DHT22;8594;52.052;8.354;2023-07-02T21:23:59;19.10;99.90
16955;DHT22;8594;52.052;8.354;2023-07-02T21:26:26;19.20;99.90
16955;DHT22;8594;52.052;8.354;2023-07-02T21:28:53;19.10;99.90
16955;DHT22;8594;52.052;8.354;2023-07-02T21:31:20;19.30;99.90
16955;DHT22;8594;52.052;8.354;2023-07-02T21:33:46;19.20;99.90
16955;DHT22;8594;52.052;8.354;2023-07-02T21:36:13;19.10;99.90
16955;DHT22;8594;52.052;8.354;2023-07-02T21:38:44;19.20;99.90
16955;DHT22;8594;52.052;8.354;2023-07-02T21:41:13;19.00;99.90
16955;DHT22;8594;52.052;8.354;2023-07-02T21:43:40;19.20;99.90
16955;DHT22;8594;52.052;8.354;2023-07-02T21:46:10;19.10;99.90
